createdAt,value
2018-04-14T00:00:39.841Z,74.30
2018-04-14T00:03:05.975Z,74.50
2018-04-14T00:05:32.079Z,74.50
2018-04-14T00:07:58.210Z,74.70
2018-04-14T00:10:24.351Z,74.50
2018-04-14T00:12:50.487Z,74.50
2018-04-14T00:15:16.615Z,74.70
2018-04-14T00:17:42.731Z,74.50
2018-04-14T00:20:08.832Z,74.80
2018-04-14T00:22:34.955Z,74.10
2018-04-14T00:25:01.108Z,74.00
2018-04-14T00:27:27.250Z,74.30
2018-04-14T00:29:54.100Z,74.50
2018-04-14T00:32:20.998Z,74.30
2018-04-14T00:34:47.142Z,74.30
2018-04-14T00:37:13.280Z,74.30
2018-04-14T00:39:40.166Z,74.10
2018-04-14T00:42:06.603Z,74.10
2018-04-14T00:44:32.729Z,74.20
2018-04-14T00:46:58.822Z,74.20
2018-04-14T00:49:24.975Z,74.20
2018-04-14T00:51:51.088Z,74.70
2018-04-14T00:54:17.247Z,74.00
2018-04-14T00:56:43.382Z,74.00
2018-04-14T00:59:09.508Z,73.90
2018-04-14T01:01:35.635Z,73.80
2018-04-14T01:04:01.755Z,73.80
2018-04-14T01:06:27.858Z,73.70
2018-04-14T01:08:53.975Z,73.30
2018-04-14T01:11:20.089Z,73.30
2018-04-14T01:13:46.215Z,73.20
2018-04-14T01:16:12.355Z,73.30
2018-04-14T01:18:38.475Z,73.60
2018-04-14T01:21:04.700Z,73.40
2018-04-14T01:23:30.801Z,73.60
2018-04-14T01:25:56.955Z,73.90
2018-04-14T01:28:23.100Z,75.10
2018-04-14T01:30:49.222Z,74.20
2018-04-14T01:33:15.355Z,74.20
2018-04-14T01:35:41.535Z,74.00
2018-04-14T01:38:07.638Z,73.70
2018-04-14T01:40:33.767Z,73.50
2018-04-14T01:42:59.897Z,73.50
2018-04-14T01:45:26.091Z,73.60
2018-04-14T01:47:52.242Z,73.80
2018-04-14T01:50:18.405Z,74.10
2018-04-14T01:52:44.498Z,74.10
2018-04-14T01:55:10.631Z,74.30
2018-04-14T01:57:36.774Z,74.70
2018-04-14T02:00:02.953Z,74.00
2018-04-14T02:02:29.056Z,73.90
2018-04-14T02:04:55.167Z,75.00
2018-04-14T02:07:21.272Z,74.80
2018-04-14T02:09:47.399Z,74.80
2018-04-14T02:12:13.951Z,74.40
2018-04-14T02:14:40.068Z,74.40
2018-04-14T02:17:06.217Z,74.40
2018-04-14T02:19:33.071Z,74.40
2018-04-14T02:21:59.243Z,74.40
2018-04-14T02:24:25.383Z,74.40
2018-04-14T02:26:51.499Z,74.30
2018-04-14T02:29:17.596Z,74.10
2018-04-14T02:31:43.725Z,74.20
2018-04-14T02:34:09.838Z,74.30
2018-04-14T02:36:35.955Z,74.20
2018-04-14T02:39:02.880Z,74.30
2018-04-14T02:41:29.010Z,74.20
2018-04-14T02:43:55.152Z,74.20
2018-04-14T02:46:21.261Z,73.80
2018-04-14T02:48:47.380Z,74.00
2018-04-14T02:51:13.487Z,74.60
2018-04-14T02:53:39.624Z,73.90
2018-04-14T02:56:05.743Z,74.20
2018-04-14T02:58:31.872Z,74.40
2018-04-14T03:00:57.998Z,74.30
2018-04-14T03:03:24.103Z,74.30
2018-04-14T03:05:50.239Z,74.20
2018-04-14T03:08:16.371Z,74.30
2018-04-14T03:10:42.474Z,74.30
2018-04-14T03:13:08.595Z,74.50
2018-04-14T03:15:34.746Z,74.50
2018-04-14T03:18:00.856Z,74.20
2018-04-14T03:20:26.958Z,73.30
2018-04-14T03:22:53.066Z,74.30
2018-04-14T03:25:19.608Z,74.40
2018-04-14T03:27:45.704Z,74.50
2018-04-14T03:30:11.875Z,74.40
2018-04-14T03:32:37.974Z,74.50
2018-04-14T03:35:04.098Z,74.60
2018-04-14T03:37:30.242Z,74.50
2018-04-14T03:39:56.370Z,74.50
2018-04-14T03:42:22.518Z,74.50
2018-04-14T03:44:48.640Z,74.40
2018-04-14T03:47:14.895Z,74.40
2018-04-14T03:49:41.197Z,74.20
2018-04-14T03:52:07.319Z,74.20
2018-04-14T03:54:33.425Z,74.10
2018-04-14T03:56:59.567Z,74.00
2018-04-14T03:59:25.675Z,74.10
2018-04-14T04:01:51.808Z,74.10
2018-04-14T04:04:17.903Z,74.00
2018-04-14T04:06:44.038Z,74.00
2018-04-14T04:09:10.158Z,74.30
2018-04-14T04:11:36.266Z,74.30
2018-04-14T04:14:02.395Z,74.40
2018-04-14T04:16:28.511Z,74.30
2018-04-14T04:19:07.551Z,74.10
2018-04-14T04:21:46.007Z,74.10
2018-04-14T04:24:25.203Z,74.10
2018-04-14T04:26:51.362Z,74.20
2018-04-14T04:29:17.454Z,74.20
2018-04-14T04:31:43.571Z,74.20
2018-04-14T04:34:09.671Z,74.20
2018-04-14T04:36:36.600Z,74.20
2018-04-14T04:39:02.771Z,74.20
2018-04-14T04:41:28.891Z,74.00
2018-04-14T04:43:55.010Z,74.30
2018-04-14T04:46:21.212Z,74.20
2018-04-14T04:48:47.351Z,74.20
2018-04-14T04:51:13.448Z,74.20
2018-04-14T04:53:39.593Z,74.30
2018-04-14T04:56:06.445Z,74.40
2018-04-14T04:58:32.602Z,74.40
2018-04-14T05:00:58.680Z,74.30
2018-04-14T05:03:25.558Z,74.40
2018-04-14T05:05:51.655Z,74.30
2018-04-14T05:08:17.786Z,74.40
2018-04-14T05:10:43.909Z,74.40
2018-04-14T05:13:10.031Z,74.50
2018-04-14T05:15:36.139Z,74.50
2018-04-14T05:18:02.411Z,74.30
2018-04-14T05:20:29.259Z,74.20
2018-04-14T05:22:55.439Z,74.30
2018-04-14T05:25:21.613Z,74.10
2018-04-14T05:27:47.790Z,74.10
2018-04-14T05:30:14.778Z,74.40
2018-04-14T05:32:41.761Z,74.50
2018-04-14T05:35:07.945Z,74.30
2018-04-14T05:37:34.156Z,74.60
2018-04-14T05:40:01.103Z,74.40
2018-04-14T05:42:27.319Z,74.50
2018-04-14T05:44:53.463Z,74.40
2018-04-14T05:47:19.620Z,74.50
2018-04-14T05:49:46.700Z,74.30
2018-04-14T05:52:13.685Z,74.30
2018-04-14T05:54:40.466Z,74.50
2018-04-14T05:57:06.933Z,74.70
2018-04-14T05:59:33.076Z,74.70
2018-04-14T06:01:59.267Z,74.40
2018-04-14T06:04:30.767Z,74.40
2018-04-14T06:06:56.978Z,74.40
2018-04-14T06:09:23.152Z,74.40
2018-04-14T06:11:49.322Z,74.40
2018-04-14T06:14:16.502Z,73.90
2018-04-14T06:16:42.683Z,73.90
2018-04-14T06:19:09.488Z,74.70
2018-04-14T06:21:35.688Z,75.10
2018-04-14T06:24:02.213Z,75.50
2018-04-14T06:26:28.395Z,75.70
2018-04-14T06:28:54.553Z,75.80
2018-04-14T06:31:20.736Z,75.60
2018-04-14T06:33:47.706Z,75.60
2018-04-14T06:36:17.201Z,76.40
2018-04-14T06:38:43.437Z,76.60
2018-04-14T06:41:10.421Z,76.20
2018-04-14T06:43:36.743Z,76.20
2018-04-14T06:46:02.995Z,75.90
2018-04-14T06:48:33.559Z,75.90
2018-04-14T06:51:00.558Z,75.20
2018-04-14T06:53:27.176Z,75.10
2018-04-14T06:55:53.368Z,76.10
2018-04-14T06:58:23.461Z,75.00
2018-04-14T07:00:58.717Z,74.50
2018-04-14T07:03:29.243Z,74.80
2018-04-14T07:05:59.608Z,74.70
2018-04-14T07:08:25.839Z,75.10
2018-04-14T07:10:52.008Z,74.20
2018-04-14T07:13:22.070Z,75.00
2018-04-14T07:15:48.243Z,75.10
2018-04-14T07:18:14.403Z,75.20
2018-04-14T07:20:40.608Z,75.00
2018-04-14T07:23:06.915Z,75.20
2018-04-14T07:25:33.268Z,76.00
2018-04-14T07:27:59.887Z,74.90
2018-04-14T07:30:26.138Z,74.70
2018-04-14T07:32:53.681Z,75.90
2018-04-14T07:35:19.970Z,75.80
2018-04-14T07:37:46.109Z,75.60
2018-04-14T07:40:12.310Z,75.60
2018-04-14T07:42:38.692Z,75.50
2018-04-14T07:45:05.625Z,76.00
2018-04-14T07:47:31.754Z,75.70
2018-04-14T07:49:57.930Z,75.30
2018-04-14T07:52:28.060Z,75.90
2018-04-14T07:54:58.091Z,75.20
2018-04-14T07:57:24.256Z,74.90
2018-04-14T07:59:55.655Z,75.00
2018-04-14T08:02:21.847Z,75.40
2018-04-14T08:04:49.358Z,74.80
2018-04-14T08:07:20.374Z,74.80
2018-04-14T08:09:46.588Z,74.80
2018-04-14T08:12:12.781Z,74.20
2018-04-14T08:14:38.907Z,73.40
2018-04-14T08:17:05.118Z,74.30
2018-04-14T08:19:31.267Z,72.10
2018-04-14T08:21:58.165Z,73.10
2018-04-14T08:24:24.415Z,73.10
2018-04-14T08:26:50.619Z,74.20
2018-04-14T08:29:16.752Z,74.00
2018-04-14T08:31:49.078Z,74.30
2018-04-14T08:34:15.297Z,74.20
2018-04-14T08:36:41.439Z,75.60
2018-04-14T08:39:07.631Z,75.00
2018-04-14T08:41:34.492Z,74.30
2018-04-14T08:44:10.083Z,74.40
2018-04-14T08:46:36.429Z,74.50
2018-04-14T08:49:02.655Z,72.90
2018-04-14T08:51:28.799Z,72.10
2018-04-14T08:53:55.727Z,74.10
2018-04-14T08:56:22.479Z,74.10
2018-04-14T08:58:49.479Z,73.50
2018-04-14T09:01:15.680Z,73.10
2018-04-14T09:03:47.121Z,73.50
2018-04-14T09:06:14.138Z,73.30
2018-04-14T09:08:40.318Z,74.30
2018-04-14T09:11:07.217Z,72.60
2018-04-14T09:13:33.621Z,72.60
2018-04-14T09:15:59.822Z,73.00
2018-04-14T09:21:12.533Z,73.20
2018-04-14T09:23:39.613Z,72.90
2018-04-14T09:26:05.760Z,72.70
2018-04-14T09:28:31.917Z,71.40
2018-04-14T09:30:58.833Z,71.70
2018-04-14T09:33:25.201Z,71.70
2018-04-14T09:35:51.443Z,71.50
2018-04-14T09:38:18.323Z,71.90
2018-04-14T09:40:44.521Z,71.90
2018-04-14T09:43:11.671Z,72.10
2018-04-14T09:45:37.887Z,71.90
2018-04-14T09:48:04.031Z,71.30
2018-04-14T09:50:30.214Z,71.60
2018-04-14T09:53:01.011Z,72.00
2018-04-14T09:55:27.658Z,71.00
2018-04-14T09:57:58.185Z,71.80
2018-04-14T10:00:26.134Z,72.10
2018-04-14T10:05:57.061Z,71.00
2018-04-14T10:08:33.128Z,70.80
2018-04-14T10:10:59.298Z,70.70
2018-04-14T10:13:26.327Z,69.80
2018-04-14T10:15:52.730Z,69.80
2018-04-14T10:18:18.930Z,68.10
2018-04-14T10:20:53.415Z,69.50
2018-04-14T10:23:19.596Z,69.40
2018-04-14T10:25:54.775Z,69.30
2018-04-14T10:28:23.965Z,68.30
2018-04-14T10:30:50.476Z,69.20
2018-04-14T10:33:21.090Z,69.30
2018-04-14T10:35:47.285Z,68.70
2018-04-14T10:38:14.701Z,68.60
2018-04-14T10:40:41.239Z,68.60
2018-04-14T10:43:11.879Z,67.60
2018-04-14T10:45:38.051Z,66.40
2018-04-14T10:48:04.494Z,66.90
2018-04-14T10:50:31.393Z,67.50
2018-04-14T10:52:57.617Z,66.30
2018-04-14T10:55:23.821Z,66.00
2018-04-14T10:57:50.771Z,66.20
2018-04-14T11:00:17.007Z,65.80
2018-04-14T11:02:43.235Z,66.50
2018-04-14T11:05:10.406Z,66.20
2018-04-14T11:07:37.251Z,66.50
2018-04-14T11:10:03.483Z,65.90
2018-04-14T11:12:30.322Z,64.50
2018-04-14T11:14:56.726Z,64.00
2018-04-14T11:17:22.993Z,64.20
2018-04-14T11:19:49.445Z,63.80
2018-04-14T11:22:16.068Z,61.40
2018-04-14T11:24:42.220Z,62.70
2018-04-14T11:27:08.397Z,63.60
2018-04-14T11:29:39.759Z,62.90
2018-04-14T11:32:09.692Z,62.90
2018-04-14T11:34:35.899Z,64.00
2018-04-14T11:37:02.094Z,64.30
2018-04-14T11:39:36.563Z,64.40
2018-04-14T11:42:03.516Z,63.10
2018-04-14T11:44:29.680Z,63.80
2018-04-14T11:46:56.605Z,62.60
2018-04-14T11:49:22.797Z,62.50
2018-04-14T11:51:49.055Z,60.90
2018-04-14T11:54:15.249Z,62.10
2018-04-14T11:56:42.149Z,60.40
2018-04-14T11:59:09.747Z,60.50
2018-04-14T12:01:35.899Z,60.40
2018-04-14T12:04:02.136Z,59.10
2018-04-14T12:06:28.344Z,60.60
2018-04-14T12:08:54.536Z,59.90
2018-04-14T12:11:25.349Z,58.80
2018-04-14T12:13:51.887Z,58.80
2018-04-14T12:16:18.292Z,58.30
2018-04-14T12:18:45.376Z,58.40
2018-04-14T12:21:16.731Z,59.20
2018-04-14T12:23:42.979Z,59.20
2018-04-14T12:26:09.166Z,57.40
2018-04-14T12:28:42.091Z,58.10
2018-04-14T12:31:08.428Z,58.00
2018-04-14T12:33:35.558Z,57.20
2018-04-14T12:36:05.734Z,58.10
2018-04-14T12:38:32.776Z,57.20
2018-04-14T12:40:59.646Z,57.40
2018-04-14T12:43:25.838Z,56.80
2018-04-14T12:45:52.215Z,57.30
2018-04-14T12:48:19.108Z,57.40
2018-04-14T12:50:45.287Z,57.40
2018-04-14T12:53:12.640Z,57.20
2018-04-14T12:55:43.494Z,57.60
2018-04-14T12:58:14.256Z,55.50
2018-04-14T13:00:45.604Z,55.70
2018-04-14T13:03:17.575Z,55.40
2018-04-14T13:05:43.777Z,53.90
2018-04-14T13:08:09.944Z,55.40
2018-04-14T13:10:44.699Z,55.10
2018-04-14T13:13:11.223Z,54.60
2018-04-14T13:15:37.443Z,54.50
2018-04-14T13:18:04.131Z,54.00
2018-04-14T13:20:31.063Z,54.50
2018-04-14T13:22:57.249Z,54.60
2018-04-14T13:25:27.831Z,55.40
2018-04-14T13:27:54.052Z,55.80
2018-04-14T13:30:20.288Z,55.00
2018-04-14T13:32:47.099Z,55.30
2018-04-14T13:35:17.129Z,54.20
2018-04-14T13:37:43.309Z,54.70
2018-04-14T13:40:10.983Z,54.10
2018-04-14T13:42:38.115Z,51.20
2018-04-14T13:45:04.247Z,51.80
2018-04-14T13:47:31.889Z,51.90
2018-04-14T13:49:58.060Z,51.80
2018-04-14T13:52:24.887Z,51.60
2018-04-14T13:54:51.074Z,51.80
2018-04-14T13:57:17.336Z,52.00
2018-04-14T13:59:43.490Z,49.80
2018-04-14T14:02:10.724Z,50.40
2018-04-14T14:04:36.963Z,50.50
2018-04-14T14:07:07.166Z,51.50
2018-04-14T14:09:33.928Z,49.70
2018-04-14T14:12:00.119Z,49.50
2018-04-14T14:14:26.357Z,49.60
2018-04-14T14:16:53.888Z,51.30
2018-04-14T14:19:20.100Z,51.30
2018-04-14T14:21:55.034Z,50.30
2018-04-14T14:24:21.131Z,49.90
2018-04-14T14:26:47.565Z,50.40
2018-04-14T14:29:14.087Z,49.60
2018-04-14T14:31:40.891Z,48.90
2018-04-14T14:34:07.859Z,50.00
2018-04-14T14:36:34.224Z,49.80
2018-04-14T14:39:00.448Z,50.10
2018-04-14T14:41:27.383Z,48.90
2018-04-14T14:43:53.576Z,48.80
2018-04-14T14:46:20.534Z,48.20
2018-04-14T14:48:50.459Z,48.20
2018-04-14T14:51:16.646Z,49.70
2018-04-14T14:53:43.259Z,48.20
2018-04-14T14:56:09.487Z,49.10
2018-04-14T14:58:35.627Z,46.70
2018-04-14T15:01:02.072Z,48.10
2018-04-14T15:03:32.472Z,48.80
2018-04-14T15:06:08.521Z,47.80
2018-04-14T15:08:43.725Z,47.20
2018-04-14T15:11:22.265Z,47.30
2018-04-14T15:13:49.010Z,48.60
2018-04-14T15:16:16.398Z,48.00
2018-04-14T15:18:58.058Z,47.50
2018-04-14T15:21:24.259Z,47.50
2018-04-14T15:23:50.434Z,46.00
2018-04-14T15:26:17.772Z,48.40
2018-04-14T15:28:44.081Z,48.80
2018-04-14T15:31:14.727Z,49.20
2018-04-14T15:33:41.643Z,49.50
2018-04-14T15:36:08.423Z,48.60
2018-04-14T15:38:34.644Z,49.10
2018-04-14T15:41:00.836Z,49.10
2018-04-14T15:43:27.810Z,50.10
2018-04-14T15:45:57.051Z,50.10
2018-04-14T15:48:23.217Z,50.80
2018-04-14T15:50:53.477Z,51.00
2018-04-14T15:53:23.737Z,49.80
2018-04-14T15:55:50.425Z,49.70
2018-04-14T15:58:18.929Z,49.60
2018-04-14T16:00:45.842Z,49.30
2018-04-14T16:03:13.109Z,49.20
2018-04-14T16:05:44.338Z,50.70
2018-04-14T16:08:10.530Z,50.60
2018-04-14T16:10:40.729Z,51.10
2018-04-14T16:13:07.141Z,51.70
2018-04-14T16:15:33.286Z,51.60
2018-04-14T16:17:59.472Z,51.80
2018-04-14T16:20:27.619Z,52.20
2018-04-14T16:22:55.615Z,51.40
2018-04-14T16:25:22.039Z,52.50
2018-04-14T16:27:48.220Z,52.70
2018-04-14T16:30:14.847Z,52.90
2018-04-14T16:32:45.168Z,53.30
2018-04-14T16:35:11.415Z,53.10
2018-04-14T16:37:41.069Z,52.10
2018-04-14T16:40:08.253Z,52.20
2018-04-14T16:42:34.386Z,52.60
2018-04-14T16:45:00.597Z,52.50
2018-04-14T16:47:30.704Z,52.60
2018-04-14T16:50:01.769Z,53.80
2018-04-14T16:52:32.143Z,53.70
2018-04-14T16:54:58.386Z,54.30
2018-04-14T16:57:33.539Z,54.40
2018-04-14T17:00:00.647Z,54.40
2018-04-14T17:02:26.823Z,53.60
2018-04-14T17:04:53.124Z,53.20
2018-04-14T17:07:19.420Z,53.80
2018-04-14T17:09:49.499Z,53.10
2018-04-14T17:12:16.501Z,53.10
2018-04-14T17:14:42.647Z,54.30
2018-04-14T17:17:08.907Z,53.70
2018-04-14T17:19:35.182Z,54.50
2018-04-14T17:22:01.663Z,55.70
2018-04-14T17:24:27.843Z,54.80
2018-04-14T17:27:02.707Z,54.70
2018-04-14T17:29:28.892Z,54.60
2018-04-14T17:31:55.947Z,55.20
2018-04-14T17:34:22.098Z,55.30
2018-04-14T17:36:48.348Z,55.30
2018-04-14T17:39:14.532Z,54.30
2018-04-14T17:41:40.717Z,54.20
2018-04-14T17:44:06.908Z,55.60
2018-04-14T17:46:35.184Z,54.70
2018-04-14T17:49:02.498Z,55.90
2018-04-14T17:51:28.923Z,55.90
2018-04-14T17:54:00.056Z,55.10
2018-04-14T17:56:26.183Z,55.60
2018-04-14T17:58:52.918Z,54.60
2018-04-14T18:01:19.787Z,55.00
2018-04-14T18:03:46.623Z,54.30
2018-04-14T18:06:22.424Z,53.90
2018-04-14T18:08:48.591Z,53.20
2018-04-14T18:11:14.995Z,54.90
2018-04-14T18:13:41.203Z,56.70
2018-04-14T18:16:07.407Z,56.50
2018-04-14T18:18:34.594Z,57.40
2018-04-14T18:21:01.442Z,57.30
2018-04-14T18:23:32.534Z,56.60
2018-04-14T18:25:59.600Z,58.30
2018-04-14T18:28:26.501Z,58.50
2018-04-14T18:30:57.358Z,58.50
2018-04-14T18:33:23.754Z,58.90
2018-04-14T18:35:52.211Z,58.30
2018-04-14T18:38:19.483Z,59.00
2018-04-14T18:40:49.739Z,59.30
2018-04-14T18:43:17.464Z,60.00
2018-04-14T18:45:44.199Z,59.90
2018-04-14T18:48:10.432Z,60.00
2018-04-14T18:50:40.545Z,60.90
2018-04-14T18:53:06.736Z,61.30
2018-04-14T18:55:33.096Z,61.30
2018-04-14T18:58:00.058Z,62.40
2018-04-14T19:00:26.266Z,62.50
2018-04-14T19:02:52.426Z,62.70
2018-04-14T19:05:24.417Z,62.80
2018-04-14T19:07:56.636Z,63.10
2018-04-14T19:10:26.799Z,63.50
2018-04-14T19:12:53.009Z,63.70
2018-04-14T19:15:19.996Z,64.10
2018-04-14T19:17:46.184Z,64.90
2018-04-14T19:20:12.596Z,65.50
2018-04-14T19:22:38.813Z,65.50
2018-04-14T19:25:04.962Z,65.50
2018-04-14T19:27:31.174Z,65.60
2018-04-14T19:29:57.358Z,65.50
2018-04-14T19:32:28.657Z,65.50
2018-04-14T19:34:54.816Z,65.50
2018-04-14T19:37:21.590Z,65.30
2018-04-14T19:39:48.390Z,65.40
2018-04-14T19:42:14.624Z,65.70
2018-04-14T19:44:40.820Z,65.60
2018-04-14T19:47:07.073Z,65.80
2018-04-14T19:49:33.988Z,66.10
2018-04-14T19:52:00.265Z,66.00
2018-04-14T19:54:26.497Z,66.10
2018-04-14T19:56:53.707Z,66.50
2018-04-14T19:59:20.712Z,66.80
2018-04-14T20:01:46.868Z,66.80
2018-04-14T20:04:13.135Z,67.00
2018-04-14T20:06:41.826Z,67.40
2018-04-14T20:09:08.268Z,67.40
2018-04-14T20:11:34.471Z,67.50
2018-04-14T20:14:01.573Z,67.50
2018-04-14T20:16:27.801Z,67.40
2018-04-14T20:18:54.038Z,67.60
2018-04-14T20:21:24.728Z,67.40
2018-04-14T20:23:50.944Z,67.60
2018-04-14T20:26:17.220Z,67.80
2018-04-14T20:28:44.011Z,68.10
2018-04-14T20:31:10.266Z,68.40
2018-04-14T20:33:36.687Z,68.10
2018-04-14T20:36:02.947Z,68.00
2018-04-14T20:38:30.071Z,68.10
2018-04-14T20:40:56.630Z,67.90
2018-04-14T20:43:22.920Z,67.90
2018-04-14T20:45:49.134Z,68.30
2018-04-14T20:48:17.253Z,68.30
2018-04-14T20:50:44.481Z,68.10
2018-04-14T20:53:10.659Z,67.90
2018-04-14T20:55:36.905Z,67.80
2018-04-14T20:58:03.496Z,68.00
2018-04-14T21:00:30.243Z,68.00
2018-04-14T21:02:56.776Z,68.20
2018-04-14T21:05:35.276Z,67.90
2018-04-14T21:08:05.821Z,67.90
2018-04-14T21:13:04.071Z,68.00
2018-04-14T21:15:30.295Z,67.90
2018-04-14T21:17:57.547Z,67.90
2018-04-14T21:20:23.799Z,67.80
2018-04-14T21:22:50.006Z,68.10
2018-04-14T21:25:16.890Z,67.90
2018-04-14T21:27:43.495Z,67.90
2018-04-14T21:30:09.779Z,67.80
2018-04-14T21:32:36.713Z,67.30
2018-04-14T21:35:04.074Z,67.30
2018-04-14T21:37:31.632Z,67.70
2018-04-14T21:40:02.854Z,67.80
2018-04-14T21:42:29.088Z,67.80
2018-04-14T21:44:55.312Z,68.70
2018-04-14T21:47:21.498Z,67.40
2018-04-14T21:49:48.401Z,66.90
2018-04-14T21:52:14.649Z,66.90
2018-04-14T21:54:41.262Z,67.10
2018-04-14T21:57:08.130Z,67.20
2018-04-14T21:59:34.296Z,67.20
2018-04-14T22:02:00.423Z,67.30
2018-04-14T22:04:26.618Z,67.40
2018-04-14T22:06:52.774Z,67.70
2018-04-14T22:09:18.913Z,67.40
2018-04-14T22:11:45.083Z,67.50
2018-04-14T22:14:24.161Z,67.40
2018-04-14T22:16:50.303Z,67.90
2018-04-14T22:19:17.190Z,68.20
2018-04-14T22:21:43.339Z,68.10
2018-04-14T22:24:09.465Z,67.80
2018-04-14T22:26:35.600Z,67.80
2018-04-14T22:29:01.859Z,67.60
2018-04-14T22:31:28.012Z,67.70
2018-04-14T22:33:54.135Z,67.60
2018-04-14T22:36:20.292Z,67.90
2018-04-14T22:38:46.403Z,67.60
2018-04-14T22:41:12.528Z,67.80
2018-04-14T22:43:38.646Z,67.90
2018-04-14T22:46:04.792Z,68.00
2018-04-14T22:48:30.907Z,68.40
2018-04-14T22:50:57.023Z,68.10
2018-04-14T22:53:23.177Z,67.90
2018-04-14T22:55:49.277Z,68.30
2018-04-14T22:58:15.431Z,68.10
2018-04-14T23:00:41.589Z,68.20
2018-04-14T23:03:07.736Z,68.10
2018-04-14T23:05:33.842Z,68.40
2018-04-14T23:07:59.958Z,68.50
2018-04-14T23:10:26.101Z,68.90
2018-04-14T23:12:52.264Z,68.40
2018-04-14T23:15:18.392Z,68.20
2018-04-14T23:17:44.523Z,68.30
2018-04-14T23:20:10.638Z,68.60
2018-04-14T23:22:36.764Z,68.20
2018-04-14T23:25:02.891Z,68.50
2018-04-14T23:27:29.040Z,68.10
2018-04-14T23:29:55.603Z,68.00
2018-04-14T23:32:22.455Z,67.70
2018-04-14T23:34:48.605Z,67.70
2018-04-14T23:37:14.723Z,67.50
2018-04-14T23:39:40.887Z,67.50
2018-04-14T23:42:07.008Z,67.50
2018-04-14T23:44:33.147Z,67.60
2018-04-14T23:46:59.275Z,67.60
2018-04-14T23:49:25.501Z,67.40
2018-04-14T23:51:51.687Z,67.60
2018-04-14T23:54:17.832Z,67.80
2018-04-14T23:56:43.954Z,67.90
2018-04-14T23:59:10.103Z,67.90
